sensor_id;sensor_type;location;lat;lon;timestamp;pressure;altitude;pressure_sealevel;temperature;humidity
6030;BME280;3043;42.682;23.376;2023-01-30T00:00:56;95168.88;;;0.48;100.00
6030;BME280;3043;42.682;23.376;2023-01-30T00:03:23;95164.53;;;0.44;100.00
6030;BME280;3043;42.682;23.376;2023-01-30T00:05:48;95166.28;;;0.45;100.00
6030;BME280;3043;42.682;23.376;2023-01-30T00:08:15;95164.63;;;0.50;100.00
6030;BME280;3043;42.682;23.376;2023-01-30T00:10:41;95163.78;;;0.48;100.00
6030;BME280;3043;42.682;23.376;2023-01-30T00:13:07;95169.91;;;0.59;100.00
6030;BME280;3043;42.682;23.376;2023-01-30T00:15:32;95171.41;;;0.48;100.00
6030;BME280;3043;42.682;23.376;2023-01-30T00:17:57;95162.75;;;0.37;100.00
6030;BME280;3043;42.682;23.376;2023-01-30T00:20:23;95168.75;;;0.41;100.00
6030;BME280;3043;42.682;23.376;2023-01-30T00:22:48;95166.38;;;0.51;100.00
6030;BME280;3043;42.682;23.376;2023-01-30T00:25:14;95173.31;;;0.61;100.00
6030;BME280;3043;42.682;23.376;2023-01-30T00:27:39;95167.94;;;0.43;100.00
6030;BME280;3043;42.682;23.376;2023-01-30T00:30:05;95169.91;;;0.59;100.00
6030;BME280;3043;42.682;23.376;2023-01-30T00:32:31;95173.06;;;0.46;100.00
6030;BME280;3043;42.682;23.376;2023-01-30T00:34:57;95167.84;;;0.37;100.00
6030;BME280;3043;42.682;23.376;2023-01-30T00:37:22;95165.38;;;0.43;100.00
6030;BME280;3043;42.682;23.376;2023-01-30T00:39:48;95162.75;;;0.37;100.00
6030;BME280;3043;42.682;23.376;2023-01-30T00:42:13;95151.09;;;0.51;100.00
6030;BME280;3043;42.682;23.376;2023-01-30T00:44:57;95157.84;;;0.49;100.00
6030;BME280;3043;42.682;23.376;2023-01-30T00:47:41;95145.63;;;0.27;100.00
6030;BME280;3043;42.682;23.376;2023-01-30T00:50:07;95151.66;;;0.35;100.00
6030;BME280;3043;42.682;23.376;2023-01-30T00:52:33;95142.28;;;0.31;100.00
6030;BME280;3043;42.682;23.376;2023-01-30T00:54:58;95143.22;;;0.36;100.00
6030;BME280;3043;42.682;23.376;2023-01-30T00:57:23;95150.09;;;0.42;100.00
6030;BME280;3043;42.682;23.376;2023-01-30T00:59:49;95152.84;;;0.55;100.00
6030;BME280;3043;42.682;23.376;2023-01-30T01:02:14;95154.63;;;0.59;100.00
6030;BME280;3043;42.682;23.376;2023-01-30T01:04:40;95149.22;;;0.41;100.00
6030;BME280;3043;42.682;23.376;2023-01-30T01:07:12;95148.97;;;0.26;100.00
6030;BME280;3043;42.682;23.376;2023-01-30T01:09:38;95139.75;;;0.33;100.00
6030;BME280;3043;42.682;23.376;2023-01-30T01:12:04;95140.72;;;0.39;100.00
6030;BME280;3043;42.682;23.376;2023-01-30T01:14:30;95138.69;;;0.20;100.00
6030;BME280;3043;42.682;23.376;2023-01-30T01:16:56;95145.56;;;0.24;100.00
6030;BME280;3043;42.682;23.376;2023-01-30T01:19:22;95131.94;;;0.22;100.00
6030;BME280;3043;42.682;23.376;2023-01-30T01:21:47;95138.94;;;0.35;100.00
6030;BME280;3043;42.682;23.376;2023-01-30T01:24:14;95127.69;;;0.20;100.00
6030;BME280;3043;42.682;23.376;2023-01-30T01:26:40;95123.22;;;0.08;100.00
6030;BME280;3043;42.682;23.376;2023-01-30T01:29:06;95129.38;;;0.21;100.00
6030;BME280;3043;42.682;23.376;2023-01-30T01:31:31;95124.25;;;0.18;100.00
6030;BME280;3043;42.682;23.376;2023-01-30T01:33:57;95119.38;;;0.31;100.00
6030;BME280;3043;42.682;23.376;2023-01-30T01:36:22;95125.53;;;0.45;100.00
6030;BME280;3043;42.682;23.376;2023-01-30T01:38:48;95126.31;;;0.41;100.00
6030;BME280;3043;42.682;23.376;2023-01-30T01:41:16;95126.31;;;0.43;100.00
6030;BME280;3043;42.682;23.376;2023-01-30T01:44:04;95125.97;;;0.20;100.00
6030;BME280;3043;42.682;23.376;2023-01-30T01:57:00;95125.19;;;0.24;100.00
6030;BME280;3043;42.682;23.376;2023-01-30T01:59:29;95128.84;;;0.41;100.00
6030;BME280;3043;42.682;23.376;2023-01-30T02:02:00;95130.63;;;0.45;100.00
6030;BME280;3043;42.682;23.376;2023-01-30T02:04:29;95128.00;;;0.41;100.00
6030;BME280;3043;42.682;23.376;2023-01-30T02:07:17;95129.66;;;0.37;100.00
6030;BME280;3043;42.682;23.376;2023-01-30T02:09:45;95125.41;;;0.36;100.00
6030;BME280;3043;42.682;23.376;2023-01-30T02:12:13;95128.13;;;0.48;100.00
6030;BME280;3043;42.682;23.376;2023-01-30T02:14:39;95119.38;;;0.33;100.00
6030;BME280;3043;42.682;23.376;2023-01-30T02:17:05;95123.75;;;0.41;100.00
6030;BME280;3043;42.682;23.376;2023-01-30T02:19:50;95122.19;;;0.49;100.00
6030;BME280;3043;42.682;23.376;2023-01-30T02:33:19;95118.16;;;0.62;100.00
6030;BME280;3043;42.682;23.376;2023-01-30T02:38:49;95115.63;;;0.63;100.00
6030;BME280;3043;42.682;23.376;2023-01-30T02:46:51;95112.59;;;0.32;100.00
6030;BME280;3043;42.682;23.376;2023-01-30T02:49:23;95106.53;;;0.25;100.00
6030;BME280;3043;42.682;23.376;2023-01-30T02:51:51;95109.84;;;0.20;100.00
6030;BME280;3043;42.682;23.376;2023-01-30T02:54:16;95108.06;;;0.14;100.00
6030;BME280;3043;42.682;23.376;2023-01-30T02:56:47;95106.56;;;0.27;100.00
6030;BME280;3043;42.682;23.376;2023-01-30T02:59:16;95107.38;;;0.23;100.00
6030;BME280;3043;42.682;23.376;2023-01-30T03:15:15;95098.63;;;0.09;100.00
6030;BME280;3043;42.682;23.376;2023-01-30T03:17:44;95092.94;;;0.23;100.00
6030;BME280;3043;42.682;23.376;2023-01-30T03:20:12;95095.63;;;0.34;100.00
6030;BME280;3043;42.682;23.376;2023-01-30T03:22:38;95091.03;;;0.10;100.00
6030;BME280;3043;42.682;23.376;2023-01-30T03:25:04;95084.16;;;0.03;100.00
6030;BME280;3043;42.682;23.376;2023-01-30T03:27:30;95074.22;;;0.18;100.00
6030;BME280;3043;42.682;23.376;2023-01-30T03:29:56;95086.72;;;0.05;100.00
6030;BME280;3043;42.682;23.376;2023-01-30T03:32:21;95078.94;;;-0.03;100.00
6030;BME280;3043;42.682;23.376;2023-01-30T03:34:47;95071.44;;;0.05;100.00
6030;BME280;3043;42.682;23.376;2023-01-30T03:37:12;95079.09;;;0.05;100.00
6030;BME280;3043;42.682;23.376;2023-01-30T03:39:38;95068.97;;;0.09;100.00
6030;BME280;3043;42.682;23.376;2023-01-30T03:42:03;95065.97;;;-0.17;100.00
6030;BME280;3043;42.682;23.376;2023-01-30T03:44:29;95074.00;;;0.05;100.00
6030;BME280;3043;42.682;23.376;2023-01-30T03:46:54;95077.06;;;-0.13;100.00
6030;BME280;3043;42.682;23.376;2023-01-30T03:49:19;95081.25;;;-0.17;100.00
6030;BME280;3043;42.682;23.376;2023-01-30T03:51:45;95079.78;;;-0.04;100.00
6030;BME280;3043;42.682;23.376;2023-01-30T03:54:11;95064.38;;;-0.12;100.00
6030;BME280;3043;42.682;23.376;2023-01-30T03:56:36;95071.53;;;0.09;100.00
6030;BME280;3043;42.682;23.376;2023-01-30T03:59:01;95068.16;;;0.12;100.00
6030;BME280;3043;42.682;23.376;2023-01-30T04:01:27;95072.84;;;-0.13;100.00
6030;BME280;3043;42.682;23.376;2023-01-30T04:03:52;95061.06;;;-0.06;100.00
6030;BME280;3043;42.682;23.376;2023-01-30T04:06:18;95063.47;;;-0.15;100.00
6030;BME280;3043;42.682;23.376;2023-01-30T04:08:43;95056.91;;;-0.01;100.00
6030;BME280;3043;42.682;23.376;2023-01-30T04:11:09;95048.66;;;0.12;100.00
6030;BME280;3043;42.682;23.376;2023-01-30T04:13:34;95057.25;;;0.20;100.00
6030;BME280;3043;42.682;23.376;2023-01-30T04:16:20;95067.38;;;0.17;100.00
6030;BME280;3043;42.682;23.376;2023-01-30T04:18:46;95055.50;;;0.16;100.00
6030;BME280;3043;42.682;23.376;2023-01-30T04:21:13;95059.50;;;0.00;100.00
6030;BME280;3043;42.682;23.376;2023-01-30T04:23:39;95064.56;;;-0.01;100.00
6030;BME280;3043;42.682;23.376;2023-01-30T04:26:06;95059.59;;;0.07;100.00
6030;BME280;3043;42.682;23.376;2023-01-30T04:28:32;95062.94;;;0.03;100.00
6030;BME280;3043;42.682;23.376;2023-01-30T04:30:57;95062.06;;;0.02;100.00
6030;BME280;3043;42.682;23.376;2023-01-30T04:33:23;95067.47;;;0.23;100.00
6030;BME280;3043;42.682;23.376;2023-01-30T04:35:56;95058.53;;;-0.06;100.00
6030;BME280;3043;42.682;23.376;2023-01-30T04:38:22;95062.09;;;0.03;100.00
6030;BME280;3043;42.682;23.376;2023-01-30T04:40:49;95055.13;;;-0.08;100.00
6030;BME280;3043;42.682;23.376;2023-01-30T04:43:15;95065.53;;;0.07;100.00
6030;BME280;3043;42.682;23.376;2023-01-30T04:45:45;95062.06;;;0.02;100.00
6030;BME280;3043;42.682;23.376;2023-01-30T04:48:11;95056.81;;;-0.07;100.00
6030;BME280;3043;42.682;23.376;2023-01-30T04:50:38;95049.72;;;-0.26;100.00
6030;BME280;3043;42.682;23.376;2023-01-30T04:53:04;95050.84;;;-0.09;100.00
6030;BME280;3043;42.682;23.376;2023-01-30T04:55:30;95043.28;;;-0.05;100.00
6030;BME280;3043;42.682;23.376;2023-01-30T04:57:55;95045.72;;;-0.11;100.00
6030;BME280;3043;42.682;23.376;2023-01-30T05:00:21;95043.84;;;-0.24;100.00
6030;BME280;3043;42.682;23.376;2023-01-30T05:02:47;95041.38;;;-0.19;100.00
6030;BME280;3043;42.682;23.376;2023-01-30T05:05:12;95041.41;;;-0.16;100.00
6030;BME280;3043;42.682;23.376;2023-01-30T05:07:38;95038.78;;;-0.21;100.00
6030;BME280;3043;42.682;23.376;2023-01-30T05:10:04;95032.91;;;-0.18;100.00
6030;BME280;3043;42.682;23.376;2023-01-30T05:12:29;95034.72;;;-0.11;100.00
6030;BME280;3043;42.682;23.376;2023-01-30T05:14:55;95034.53;;;-0.23;100.00
6030;BME280;3043;42.682;23.376;2023-01-30T05:17:21;95044.09;;;-0.07;100.00
6030;BME280;3043;42.682;23.376;2023-01-30T05:19:46;95043.44;;;0.03;100.00
6030;BME280;3043;42.682;23.376;2023-01-30T05:22:12;95045.59;;;-0.18;100.00
6030;BME280;3043;42.682;23.376;2023-01-30T05:24:38;95048.19;;;-0.15;100.00
6030;BME280;3043;42.682;23.376;2023-01-30T05:27:03;95054.16;;;-0.15;100.00
6030;BME280;3043;42.682;23.376;2023-01-30T05:29:29;95047.91;;;-0.33;100.00
6030;BME280;3043;42.682;23.376;2023-01-30T05:31:54;95054.78;;;-0.29;100.00
6030;BME280;3043;42.682;23.376;2023-01-30T05:34:20;95051.63;;;-0.13;100.00
6030;BME280;3043;42.682;23.376;2023-01-30T05:36:45;95044.75;;;-0.20;100.00
6030;BME280;3043;42.682;23.376;2023-01-30T05:39:11;95037.50;;;0.04;100.00
6030;BME280;3043;42.682;23.376;2023-01-30T05:41:36;95033.94;;;-0.07;100.00
6030;BME280;3043;42.682;23.376;2023-01-30T05:44:02;95044.00;;;-0.13;100.00
6030;BME280;3043;42.682;23.376;2023-01-30T05:46:27;95042.25;;;-0.17;100.00
6030;BME280;3043;42.682;23.376;2023-01-30T05:48:52;95051.69;;;-0.10;100.00
6030;BME280;3043;42.682;23.376;2023-01-30T05:51:20;95043.25;;;-0.06;100.00
6030;BME280;3043;42.682;23.376;2023-01-30T05:53:46;95048.41;;;-0.03;100.00
6030;BME280;3043;42.682;23.376;2023-01-30T05:56:11;95055.16;;;-0.05;100.00
6030;BME280;3043;42.682;23.376;2023-01-30T05:58:37;95056.00;;;-0.05;100.00
6030;BME280;3043;42.682;23.376;2023-01-30T06:01:05;95053.63;;;0.03;100.00
6030;BME280;3043;42.682;23.376;2023-01-30T06:03:31;95054.78;;;-0.29;100.00
6030;BME280;3043;42.682;23.376;2023-01-30T06:05:56;95049.69;;;-0.29;100.00
6030;BME280;3043;42.682;23.376;2023-01-30T06:08:22;95048.84;;;0.24;100.00
6030;BME280;3043;42.682;23.376;2023-01-30T06:10:48;95046.97;;;0.14;100.00
6030;BME280;3043;42.682;23.376;2023-01-30T06:13:13;95047.06;;;0.20;100.00
6030;BME280;3043;42.682;23.376;2023-01-30T06:15:38;95056.31;;;0.14;100.00
6030;BME280;3043;42.682;23.376;2023-01-30T06:18:04;95042.84;;;0.21;100.00
6030;BME280;3043;42.682;23.376;2023-01-30T06:20:29;95045.19;;;0.07;100.00
6030;BME280;3043;42.682;23.376;2023-01-30T06:22:55;95044.16;;;-0.04;100.00
6030;BME280;3043;42.682;23.376;2023-01-30T06:25:20;95040.94;;;0.06;100.00
6030;BME280;3043;42.682;23.376;2023-01-30T06:27:46;95041.22;;;-0.28;100.00
6030;BME280;3043;42.682;23.376;2023-01-30T06:30:11;95040.41;;;-0.26;100.00
6030;BME280;3043;42.682;23.376;2023-01-30T06:32:37;95035.53;;;-0.12;100.00
6030;BME280;3043;42.682;23.376;2023-01-30T06:35:03;95045.41;;;-0.30;100.00
6030;BME280;3043;42.682;23.376;2023-01-30T06:37:28;95045.72;;;-0.12;100.00
6030;BME280;3043;42.682;23.376;2023-01-30T06:39:54;95043.09;;;-0.17;100.00
6030;BME280;3043;42.682;23.376;2023-01-30T06:42:19;95046.56;;;-0.13;100.00
6030;BME280;3043;42.682;23.376;2023-01-30T06:44:45;95052.19;;;-0.31;100.00
6030;BME280;3043;42.682;23.376;2023-01-30T06:47:10;95048.06;;;-0.24;100.00
6030;BME280;3043;42.682;23.376;2023-01-30T06:49:35;95044.09;;;-0.09;100.00
6030;BME280;3043;42.682;23.376;2023-01-30T06:52:01;95048.41;;;-0.02;100.00
6030;BME280;3043;42.682;23.376;2023-01-30T06:54:26;95055.28;;;0.01;100.00
6030;BME280;3043;42.682;23.376;2023-01-30T06:56:52;95056.53;;;-0.25;100.00
6030;BME280;3043;42.682;23.376;2023-01-30T06:59:18;95061.91;;;-0.07;100.00
6030;BME280;3043;42.682;23.376;2023-01-30T07:01:43;95067.16;;;0.02;100.00
6030;BME280;3043;42.682;23.376;2023-01-30T07:04:08;95057.09;;;0.11;100.00
6030;BME280;3043;42.682;23.376;2023-01-30T07:06:35;95063.78;;;0.03;100.00
6030;BME280;3043;42.682;23.376;2023-01-30T07:09:00;95057.06;;;0.08;100.00
6030;BME280;3043;42.682;23.376;2023-01-30T07:11:26;95061.84;;;-0.10;100.00
6030;BME280;3043;42.682;23.376;2023-01-30T07:13:51;95065.09;;;-0.20;100.00
6030;BME280;3043;42.682;23.376;2023-01-30T07:16:17;95071.09;;;-0.15;100.00
6030;BME280;3043;42.682;23.376;2023-01-30T07:18:42;95070.28;;;-0.14;100.00
6030;BME280;3043;42.682;23.376;2023-01-30T07:21:08;95062.81;;;-0.04;100.00
6030;BME280;3043;42.682;23.376;2023-01-30T07:23:34;95054.28;;;0.48;100.00
6030;BME280;3043;42.682;23.376;2023-01-30T07:26:04;95055.81;;;0.37;100.00
6030;BME280;3043;42.682;23.376;2023-01-30T07:28:30;95057.09;;;0.66;100.00
6030;BME280;3043;42.682;23.376;2023-01-30T07:30:59;95067.84;;;0.47;100.00
6030;BME280;3043;42.682;23.376;2023-01-30T07:33:25;95067.84;;;0.47;100.00
6030;BME280;3043;42.682;23.376;2023-01-30T07:35:50;95079.84;;;0.54;100.00
6030;BME280;3043;42.682;23.376;2023-01-30T07:38:15;95077.28;;;0.53;100.00
6030;BME280;3043;42.682;23.376;2023-01-30T07:40:41;95085.97;;;0.65;100.00
6030;BME280;3043;42.682;23.376;2023-01-30T07:43:09;95084.03;;;0.51;100.00
6030;BME280;3043;42.682;23.376;2023-01-30T07:48:07;95079.03;;;0.58;100.00
6030;BME280;3043;42.682;23.376;2023-01-30T07:50:32;95079.84;;;0.54;100.00
6030;BME280;3043;42.682;23.376;2023-01-30T07:52:58;95080.25;;;0.84;100.00
6030;BME280;3043;42.682;23.376;2023-01-30T07:55:23;95073.44;;;0.80;100.00
6030;BME280;3043;42.682;23.376;2023-01-30T07:57:49;95059.88;;;0.84;100.00
6030;BME280;3043;42.682;23.376;2023-01-30T08:00:15;95059.66;;;0.66;100.00
6030;BME280;3043;42.682;23.376;2023-01-30T08:02:41;95059.13;;;0.93;100.00
6030;BME280;3043;42.682;23.376;2023-01-30T08:05:06;95061.53;;;0.82;100.00
6030;BME280;3043;42.682;23.376;2023-01-30T08:07:32;95058.06;;;0.74;100.00
6030;BME280;3043;42.682;23.376;2023-01-30T08:09:57;95049.84;;;0.96;100.00
6030;BME280;3043;42.682;23.376;2023-01-30T08:12:23;95055.63;;;0.82;100.00
6030;BME280;3043;42.682;23.376;2023-01-30T08:14:48;95051.47;;;0.91;100.00
6030;BME280;3043;42.682;23.376;2023-01-30T08:17:15;95058.81;;;0.69;100.00
6030;BME280;3043;42.682;23.376;2023-01-30T08:19:40;95047.81;;;0.70;100.00
6030;BME280;3043;42.682;23.376;2023-01-30T08:22:06;95041.13;;;0.79;100.00
6030;BME280;3043;42.682;23.376;2023-01-30T08:24:31;95053.19;;;0.92;100.00
6030;BME280;3043;42.682;23.376;2023-01-30T08:26:56;95056.31;;;0.73;100.00
6030;BME280;3043;42.682;23.376;2023-01-30T08:29:22;95047.94;;;0.80;100.00
6030;BME280;3043;42.682;23.376;2023-01-30T08:31:48;95049.66;;;0.81;100.00
6030;BME280;3043;42.682;23.376;2023-01-30T08:34:13;95049.41;;;0.63;100.00
6030;BME280;3043;42.682;23.376;2023-01-30T08:36:39;95047.66;;;0.59;100.00
6030;BME280;3043;42.682;23.376;2023-01-30T08:39:04;95041.59;;;0.50;100.00
6030;BME280;3043;42.682;23.376;2023-01-30T08:41:30;95039.44;;;0.78;100.00
6030;BME280;3043;42.682;23.376;2023-01-30T08:43:55;95034.34;;;0.78;100.00
6030;BME280;3043;42.682;23.376;2023-01-30T08:46:20;95031.06;;;0.88;100.00
6030;BME280;3043;42.682;23.376;2023-01-30T08:48:47;95037.72;;;0.77;100.00
6030;BME280;3043;42.682;23.376;2023-01-30T08:51:12;95026.09;;;1.00;100.00
6030;BME280;3043;42.682;23.376;2023-01-30T08:53:38;95031.13;;;0.94;100.00
6030;BME280;3043;42.682;23.376;2023-01-30T08:56:04;95025.13;;;0.89;100.00
6030;BME280;3043;42.682;23.376;2023-01-30T08:58:29;95025.91;;;0.85;100.00
6030;BME280;3043;42.682;23.376;2023-01-30T09:00:55;95031.06;;;0.88;100.00
6030;BME280;3043;42.682;23.376;2023-01-30T09:03:20;95023.47;;;0.94;100.00
6030;BME280;3043;42.682;23.376;2023-01-30T09:05:45;95024.41;;;0.99;100.00
6030;BME280;3043;42.682;23.376;2023-01-30T09:08:11;95020.94;;;0.94;100.00
6030;BME280;3043;42.682;23.376;2023-01-30T09:10:37;95012.75;;;1.19;100.00
6030;BME280;3043;42.682;23.376;2023-01-30T09:13:03;95014.22;;;0.99;100.00
6030;BME280;3043;42.682;23.376;2023-01-30T09:15:30;95017.75;;;1.10;100.00
6030;BME280;3043;42.682;23.376;2023-01-30T09:17:56;95017.53;;;0.92;100.00
6030;BME280;3043;42.682;23.376;2023-01-30T09:20:21;95014.09;;;0.90;100.00
6030;BME280;3043;42.682;23.376;2023-01-30T09:22:47;95008.97;;;0.87;100.00
6030;BME280;3043;42.682;23.376;2023-01-30T09:25:13;94998.88;;;0.96;100.00
6030;BME280;3043;42.682;23.376;2023-01-30T09:27:39;95008.41;;;1.11;100.00
6030;BME280;3043;42.682;23.376;2023-01-30T09:30:10;95006.31;;;0.78;100.00
6030;BME280;3043;42.682;23.376;2023-01-30T09:32:36;95006.56;;;0.99;100.00
6030;BME280;3043;42.682;23.376;2023-01-30T09:35:03;95012.47;;;0.95;100.00
6030;BME280;3043;42.682;23.376;2023-01-30T09:37:28;95009.00;;;0.90;100.00
6030;BME280;3043;42.682;23.376;2023-01-30T09:39:54;95002.31;;;0.98;100.00
6030;BME280;3043;42.682;23.376;2023-01-30T09:42:42;95004.94;;;1.04;100.00
6030;BME280;3043;42.682;23.376;2023-01-30T09:48:20;94992.09;;;0.95;100.00
6030;BME280;3043;42.682;23.376;2023-01-30T09:56:38;94981.91;;;0.97;100.00
6030;BME280;3043;42.682;23.376;2023-01-30T09:59:04;94982.19;;;1.22;100.00
6030;BME280;3043;42.682;23.376;2023-01-30T10:04:43;94970.34;;;1.27;100.00
6030;BME280;3043;42.682;23.376;2023-01-30T10:15:37;94944.53;;;0.97;100.00
6030;BME280;3043;42.682;23.376;2023-01-30T10:21:06;94937.59;;;0.83;100.00
6030;BME280;3043;42.682;23.376;2023-01-30T10:26:14;94934.28;;;0.91;100.00
6030;BME280;3043;42.682;23.376;2023-01-30T10:31:27;94928.44;;;1.01;100.00
6030;BME280;3043;42.682;23.376;2023-01-30T10:33:58;94930.00;;;0.87;100.00
6030;BME280;3043;42.682;23.376;2023-01-30T10:36:35;94918.00;;;0.77;100.00
6030;BME280;3043;42.682;23.376;2023-01-30T10:39:17;94900.34;;;0.92;100.00
6030;BME280;3043;42.682;23.376;2023-01-30T10:41:54;94903.91;;;1.09;100.00
6030;BME280;3043;42.682;23.376;2023-01-30T10:44:22;94903.94;;;1.11;100.00
6030;BME280;3043;42.682;23.376;2023-01-30T10:47:01;94905.59;;;1.10;100.00
6030;BME280;3043;42.682;23.376;2023-01-30T10:49:39;94885.81;;;0.85;100.00
6030;BME280;3043;42.682;23.376;2023-01-30T10:54:59;94881.00;;;1.12;100.00
6030;BME280;3043;42.682;23.376;2023-01-30T11:00:36;94864.97;;;1.25;100.00
6030;BME280;3043;42.682;23.376;2023-01-30T11:03:36;94858.13;;;1.18;100.00
6030;BME280;3043;42.682;23.376;2023-01-30T11:06:10;94845.38;;;1.20;100.00
6030;BME280;3043;42.682;23.376;2023-01-30T11:08:37;94834.44;;;1.34;100.00
6030;BME280;3043;42.682;23.376;2023-01-30T11:14:08;94833.50;;;1.26;100.00
6030;BME280;3043;42.682;23.376;2023-01-30T11:16:54;94837.09;;;1.49;100.00
6030;BME280;3043;42.682;23.376;2023-01-30T11:19:23;94836.38;;;1.65;100.00
6030;BME280;3043;42.682;23.376;2023-01-30T11:21:51;94819.16;;;1.34;100.00
6030;BME280;3043;42.682;23.376;2023-01-30T11:24:22;94819.09;;;1.28;100.00
6030;BME280;3043;42.682;23.376;2023-01-30T11:26:49;94819.09;;;1.28;100.00
6030;BME280;3043;42.682;23.376;2023-01-30T11:29:29;94805.56;;;1.38;100.00
6030;BME280;3043;42.682;23.376;2023-01-30T11:32:25;94808.97;;;1.37;100.00
6030;BME280;3043;42.682;23.376;2023-01-30T11:37:51;94803.09;;;1.50;100.00
6030;BME280;3043;42.682;23.376;2023-01-30T11:42:47;94793.81;;;1.61;100.00
6030;BME280;3043;42.682;23.376;2023-01-30T11:45:14;94783.72;;;1.82;100.00
6030;BME280;3043;42.682;23.376;2023-01-30T11:47:50;94778.59;;;1.76;100.00
6030;BME280;3043;42.682;23.376;2023-01-30T11:50:17;94777.84;;;1.96;100.00
6030;BME280;3043;42.682;23.376;2023-01-30T11:52:44;94766.81;;;2.06;100.00
6030;BME280;3043;42.682;23.376;2023-01-30T11:55:14;94763.38;;;1.98;100.00
6030;BME280;3043;42.682;23.376;2023-01-30T11:57:47;94760.06;;;2.14;100.00
6030;BME280;3043;42.682;23.376;2023-01-30T12:00:20;94762.63;;;2.18;100.00
6030;BME280;3043;42.682;23.376;2023-01-30T12:02:48;94740.50;;;2.20;100.00
6030;BME280;3043;42.682;23.376;2023-01-30T12:05:30;94743.09;;;2.34;100.00
6030;BME280;3043;42.682;23.376;2023-01-30T12:10:48;94736.25;;;2.27;100.00
6030;BME280;3043;42.682;23.376;2023-01-30T12:13:23;94734.47;;;1.93;100.00
6030;BME280;3043;42.682;23.376;2023-01-30T12:18:41;94725.13;;;2.02;100.00
6030;BME280;3043;42.682;23.376;2023-01-30T12:23:49;94714.91;;;2.04;100.00
6030;BME280;3043;42.682;23.376;2023-01-30T12:28:57;94704.78;;;2.28;100.00
6030;BME280;3043;42.682;23.376;2023-01-30T12:31:32;94692.06;;;2.52;100.00
6030;BME280;3043;42.682;23.376;2023-01-30T12:34:01;94686.06;;;2.56;100.00
6030;BME280;3043;42.682;23.376;2023-01-30T12:40:01;94683.53;;;2.68;100.00
6030;BME280;3043;42.682;23.376;2023-01-30T12:45:33;94672.47;;;2.88;100.00
6030;BME280;3043;42.682;23.376;2023-01-30T12:51:03;94669.72;;;3.65;100.00
6030;BME280;3043;42.682;23.376;2023-01-30T12:53:46;94670.63;;;3.49;100.00
6030;BME280;3043;42.682;23.376;2023-01-30T12:59:35;94662.19;;;3.21;100.00
6030;BME280;3043;42.682;23.376;2023-01-30T13:07:33;94655.38;;;3.04;100.00
6030;BME280;3043;42.682;23.376;2023-01-30T13:10:17;94657.94;;;3.04;100.00
6030;BME280;3043;42.682;23.376;2023-01-30T13:18:17;94647.72;;;2.95;100.00
6030;BME280;3043;42.682;23.376;2023-01-30T13:21:07;94647.75;;;2.89;100.00
6030;BME280;3043;42.682;23.376;2023-01-30T13:26:27;94646.06;;;2.61;100.00
6030;BME280;3043;42.682;23.376;2023-01-30T13:28:58;94629.03;;;2.30;100.00
6030;BME280;3043;42.682;23.376;2023-01-30T13:31:27;94631.56;;;2.16;100.00
6030;BME280;3043;42.682;23.376;2023-01-30T13:34:11;94629.88;;;2.14;100.00
6030;BME280;3043;42.682;23.376;2023-01-30T13:36:51;94628.19;;;2.22;100.00
6030;BME280;3043;42.682;23.376;2023-01-30T13:39:47;94634.94;;;1.96;100.00
6030;BME280;3043;42.682;23.376;2023-01-30T13:42:37;94622.22;;;2.20;100.00
6030;BME280;3043;42.682;23.376;2023-01-30T13:45:13;94626.44;;;2.10;100.00
6030;BME280;3043;42.682;23.376;2023-01-30T14:01:10;94615.28;;;1.64;100.00
6030;BME280;3043;42.682;23.376;2023-01-30T14:03:36;94622.97;;;1.70;100.00
6030;BME280;3043;42.682;23.376;2023-01-30T14:06:11;94615.38;;;1.98;100.00
6030;BME280;3043;42.682;23.376;2023-01-30T14:14:34;94623.88;;;1.91;100.00
6030;BME280;3043;42.682;23.376;2023-01-30T14:17:15;94624.75;;;1.96;100.00
6030;BME280;3043;42.682;23.376;2023-01-30T14:19:57;94609.44;;;2.02;100.00
6030;BME280;3043;42.682;23.376;2023-01-30T14:30:51;94623.75;;;1.44;100.00
6030;BME280;3043;42.682;23.376;2023-01-30T14:35:46;94619.47;;;1.41;100.00
6030;BME280;3043;42.682;23.376;2023-01-30T14:38:21;94613.56;;;1.50;100.00
6030;BME280;3043;42.682;23.376;2023-01-30T14:49:02;94610.00;;;1.13;100.00
6030;BME280;3043;42.682;23.376;2023-01-30T14:59:23;94587.66;;;0.67;100.00
6030;BME280;3043;42.682;23.376;2023-01-30T15:04:39;94588.50;;;0.65;100.00
6030;BME280;3043;42.682;23.376;2023-01-30T15:07:19;94588.59;;;0.77;100.00
6030;BME280;3043;42.682;23.376;2023-01-30T15:09:58;94587.69;;;0.73;100.00
6030;BME280;3043;42.682;23.376;2023-01-30T15:12:54;94586.13;;;0.96;100.00
6030;BME280;3043;42.682;23.376;2023-01-30T15:21:38;94589.34;;;0.59;100.00
6030;BME280;3043;42.682;23.376;2023-01-30T15:32:26;94592.50;;;0.31;100.00
6030;BME280;3043;42.682;23.376;2023-01-30T15:35:39;94595.03;;;0.28;100.00
6030;BME280;3043;42.682;23.376;2023-01-30T15:37:53;94582.25;;;0.19;100.00
6030;BME280;3043;42.682;23.376;2023-01-30T15:40:21;94590.69;;;0.12;100.00
6030;BME280;3043;42.682;23.376;2023-01-30T15:50:52;94588.78;;;-0.10;100.00
6030;BME280;3043;42.682;23.376;2023-01-30T15:53:24;94578.50;;;-0.22;100.00
6030;BME280;3043;42.682;23.376;2023-01-30T15:55:52;94580.94;;;-0.33;100.00
6030;BME280;3043;42.682;23.376;2023-01-30T15:58:19;94584.28;;;-0.40;100.00
6030;BME280;3043;42.682;23.376;2023-01-30T16:00:52;94580.88;;;-0.40;100.00
6030;BME280;3043;42.682;23.376;2023-01-30T16:03:34;94581.72;;;-0.41;100.00
6030;BME280;3043;42.682;23.376;2023-01-30T16:06:05;94574.91;;;-0.42;100.00
6030;BME280;3043;42.682;23.376;2023-01-30T16:08:33;94581.78;;;-0.35;100.00
6030;BME280;3043;42.682;23.376;2023-01-30T16:11:01;94574.81;;;-0.51;100.00
6030;BME280;3043;42.682;23.376;2023-01-30T16:13:28;94574.00;;;-0.50;100.00
6030;BME280;3043;42.682;23.376;2023-01-30T16:16:07;94564.59;;;-0.57;100.00
6030;BME280;3043;42.682;23.376;2023-01-30T16:18:53;94572.06;;;-0.72;100.00
6030;BME280;3043;42.682;23.376;2023-01-30T16:21:25;94569.56;;;-0.66;100.00
6030;BME280;3043;42.682;23.376;2023-01-30T16:24:03;94567.03;;;-0.66;100.00
6030;BME280;3043;42.682;23.376;2023-01-30T16:26:31;94559.31;;;-0.75;100.00
6030;BME280;3043;42.682;23.376;2023-01-30T16:29:06;94569.50;;;-0.72;100.00
6030;BME280;3043;42.682;23.376;2023-01-30T16:31:34;94569.53;;;-0.69;100.00
6030;BME280;3043;42.682;23.376;2023-01-30T16:34:01;94566.16;;;-0.68;100.00